Western Neb. Rgnl/William B. Heilig Airport
KBFF : rendu visible

Aérodrome :











RETROUVEZ-NOUS SUR...

 
LOGIN :

S'inscrire | Disclaimer

   EN    FR    IT 

 









Légende :    VFR   VFR Marginal   IFR   IFR Intensif   IFR Très Intensif
Visi : 
Plafond : 
>= 8 km
>= 3000ft
5 à 8 km
1000 à 3000 ft
1500m à 5 km
500 à 1000 ft
800 à 1500m
200 à 500 ft
< 800m
< 200 ft
Symboles :   Orages  Brouillard  Fortes neiges  Fortes précipitations  Vent > 20 kt






- Altitude de l'aérodrome : 3967 ft
- Code IATA : BFF


KBFF - Western Neb. Rgnl/William B. Heilig

DERNIER METAR :
  • 150653Z AUTO 07006KT 10SM CLR 01/M02 A3015 RMK AO2 SLP213 T00061017 401391028

METARs EXPIRÉS :
  • 150553Z AUTO 07008KT 10SM CLR 02/M02 A3016 RMK AO2 SLP218 T00171017 10067 20006 58007
  • 150453Z AUTO 08007KT 10SM CLR 01/M02 A3017 RMK AO2 SLP229 T00111022

TAF KBFF
Valide du 15 à 06h jusqu'au 16 à 06h UTC


150530Z 1506/1606 10006KT P6SM FEW050 FEW200
FM151500 30006KT P6SM BKN150



MET'MAP, la Météo Aéronautique d'un coup d'oeil ! - Copyright ORBIFLY Décembre 2007 - Disclaimer

ORBIFLY MET'MAP TEAM :

Programmation & Développement : Alexandra Zaïnal
Conception & Développement : Baudouin d'Aumeries
Co-Programmation & Développement : Marc-Olivier Méhu
Soutien technique & logistique : Manuel Goepfert

Contact : metmap@orbifly.com




SOURCES & CREDITS :

   NOAA       Earth
Advisory